Terminal Aerodrome Forecast
Issued by NWS Cleveland, OH

Home | Current Version | Previous Version | Graphics & Text | Print | Product List | Glossary On
Versions: 1 2 3 4 5 6 7 8 9 10 11 12 13 14 15 16 17 18
448
FTUS41 KCLE 180520
TAFYNG
TAF
KYNG 180520Z 1806/1906 04010KT P6SM OVC250
     FM181400 08015G25KT P6SM OVC080
     FM181800 09018G28KT 6SM BR VCSH OVC025
     FM182000 10018G28KT 5SM -SHRA BR OVC015
     FM182300 10018G28KT 4SM -SHRA BR OVC015
     FM190200 10018G28KT 6SM -SHRA BR OVC007=

USA.gov is the U.S. government's official web portal to all federal, state and local government web resources and services.